Time;durP1;ratioP1;P1;durP2;ratioP2;P2;SDS_P1;SDS_P2;PMS_P1;PMS_P2;Temp;Humidity;BMP_temperature;BMP_pressure;BME280_temperature;BME280_humidity;BME280_pressure;Samples;Min_cycle;Max_cycle;Signal;HPM_P1;HPM_P2
2022/10/28 00:00:23;;;;;;;12.10;7.60;;;;;;;;;;5050789;28;20201;-81
2022/10/28 00:02:49;;;;;;;8.77;6.53;;;;;;;;;;5044589;28;20174;-81
2022/10/28 00:05:15;;;;;;;9.67;7.10;;;;;;;;;;5049675;28;20205;-83
2022/10/28 00:07:42;;;;;;;10.10;6.77;;;;;;;;;;5039164;28;20197;-81
2022/10/28 00:10:08;;;;;;;11.47;6.17;;;;;;;;;;5048439;28;20665;-83
2022/10/28 00:12:35;;;;;;;10.07;6.60;;;;;;;;;;5044062;28;20181;-82
2022/10/28 00:15:01;;;;;;;13.70;7.40;;;;;;;;;;5033458;28;20233;-83
2022/10/28 00:17:28;;;;;;;11.10;7.30;;;;;;;;;;5041026;28;20792;-83
2022/10/28 00:19:55;;;;;;;12.53;7.60;;;;;;;;;;5024819;28;20204;-82
2022/10/28 00:22:21;;;;;;;14.27;7.60;;;;;;;;;;5044395;28;20185;-83
2022/10/28 00:24:47;;;;;;;11.90;7.30;;;;;;;;;;5032549;28;20198;-83
2022/10/28 00:27:13;;;;;;;13.83;7.27;;;;;;;;;;5050393;28;20657;-83
2022/10/28 00:29:39;;;;;;;11.97;6.70;;;;;;;;;;5035670;28;20178;-83
2022/10/28 00:32:06;;;;;;;10.73;6.90;;;;;;;;;;5043133;28;20708;-82
2022/10/28 00:34:32;;;;;;;10.47;6.77;;;;;;;;;;5053295;28;20236;-83
2022/10/28 00:36:58;;;;;;;12.50;6.60;;;;;;;;;;5031465;28;20217;-83
2022/10/28 00:39:26;;;;;;;10.37;6.60;;;;;;;;;;5050727;28;20192;-82
2022/10/28 00:41:56;;;;;;;8.70;6.60;;;;;;;;;;5066831;28;20614;-83
2022/10/28 00:44:42;;;;;;;11.13;6.80;;;;;;;;;;5049760;28;20185;-84
2022/10/28 00:47:13;;;;;;;8.97;6.13;;;;;;;;;;5048827;28;20273;-84
2022/10/28 00:49:40;;;;;;;9.43;6.43;;;;;;;;;;5037906;28;20174;-83
2022/10/28 00:52:12;;;;;;;12.40;6.30;;;;;;;;;;5038270;28;20190;-84
2022/10/28 00:54:39;;;;;;;9.70;6.40;;;;;;;;;;5013933;28;20597;-83
2022/10/28 00:57:08;;;;;;;12.67;6.73;;;;;;;;;;5049091;28;20283;-84
2022/10/28 00:59:35;;;;;;;10.63;6.80;;;;;;;;;;5048200;28;20225;-83
2022/10/28 01:02:02;;;;;;;10.63;6.43;;;;;;;;;;5025570;28;20179;-83
2022/10/28 01:04:28;;;;;;;11.27;5.67;;;;;;;;;;5044733;28;20258;-84
2022/10/28 01:06:55;;;;;;;10.17;6.53;;;;;;;;;;5030088;28;20252;-83
2022/10/28 01:09:21;;;;;;;7.47;5.90;;;;;;;;;;5046031;28;20227;-83
2022/10/28 01:11:54;;;;;;;11.10;5.83;;;;;;;;;;5049083;28;20197;-83
2022/10/28 01:14:38;;;;;;;9.00;5.67;;;;;;;;;;5049653;28;20269;-83
2022/10/28 01:17:24;;;;;;;11.13;6.33;;;;;;;;;;5031083;28;20205;-83
2022/10/28 01:20:09;;;;;;;7.07;5.57;;;;;;;;;;5045917;28;20189;-82
2022/10/28 01:22:42;;;;;;;9.10;6.10;;;;;;;;;;5049322;28;20238;-83
2022/10/28 01:25:21;;;;;;;8.47;5.87;;;;;;;;;;5054183;28;20296;-83
2022/10/28 01:27:59;;;;;;;10.03;6.40;;;;;;;;;;5032458;28;20707;-83
2022/10/28 01:30:26;;;;;;;10.13;6.07;;;;;;;;;;5038180;28;20170;-83
2022/10/28 01:32:57;;;;;;;9.53;6.07;;;;;;;;;;5038916;28;20191;-83
2022/10/28 01:35:26;;;;;;;9.70;5.37;;;;;;;;;;5031267;28;20206;-83
2022/10/28 01:37:58;;;;;;;9.03;5.53;;;;;;;;;;5044362;28;20208;-81
2022/10/28 01:40:38;;;;;;;12.27;6.50;;;;;;;;;;5042368;28;20186;-83
2022/10/28 01:43:17;;;;;;;9.60;6.60;;;;;;;;;;5030528;28;20189;-84
2022/10/28 01:45:51;;;;;;;10.77;6.37;;;;;;;;;;5030100;28;20206;-81
2022/10/28 01:48:20;;;;;;;10.23;6.53;;;;;;;;;;5049349;28;20602;-83
2022/10/28 01:51:01;;;;;;;8.23;6.30;;;;;;;;;;5023763;28;20183;-84
2022/10/28 01:53:30;;;;;;;10.63;6.30;;;;;;;;;;5041420;28;20194;-82
2022/10/28 01:55:59;;;;;;;12.20;5.93;;;;;;;;;;5044989;28;20207;-83
2022/10/28 01:58:27;;;;;;;9.73;5.83;;;;;;;;;;5033768;28;20632;-83
2022/10/28 02:00:54;;;;;;;9.63;5.53;;;;;;;;;;5050166;28;20280;-83
2022/10/28 02:03:20;;;;;;;9.33;4.63;;;;;;;;;;5046591;28;20182;-83
2022/10/28 02:05:51;;;;;;;9.87;5.37;;;;;;;;;;5043123;28;20247;-83
2022/10/28 02:08:17;;;;;;;9.97;5.03;;;;;;;;;;5039761;28;20193;-83
2022/10/28 02:10:52;;;;;;;10.00;5.07;;;;;;;;;;5038445;28;20917;-83
2022/10/28 02:13:20;;;;;;;7.77;5.27;;;;;;;;;;5047965;28;20185;-84
2022/10/28 02:15:49;;;;;;;9.70;5.00;;;;;;;;;;5044656;28;20194;-83
2022/10/28 02:18:34;;;;;;;11.67;5.37;;;;;;;;;;5060397;28;20197;-84
2022/10/28 02:21:05;;;;;;;10.73;4.30;;;;;;;;;;5032544;28;20182;-82
2022/10/28 02:23:41;;;;;;;8.40;4.27;;;;;;;;;;5050778;28;20173;-83
2022/10/28 02:26:32;;;;;;;10.53;4.37;;;;;;;;;;5036105;28;20203;-82
2022/10/28 02:29:01;;;;;;;5.67;3.70;;;;;;;;;;5046239;28;20193;-84
2022/10/28 02:31:31;;;;;;;9.03;4.67;;;;;;;;;;5048616;28;20197;-83
2022/10/28 02:34:00;;;;;;;7.13;4.60;;;;;;;;;;5040318;28;20252;-84
2022/10/28 02:36:27;;;;;;;7.27;5.27;;;;;;;;;;5047711;28;20209;-84
2022/10/28 02:38:55;;;;;;;8.87;5.40;;;;;;;;;;5014449;28;20213;-84
2022/10/28 02:41:33;;;;;;;7.23;4.90;;;;;;;;;;5030935;28;20205;-84
2022/10/28 02:44:01;;;;;;;8.83;4.93;;;;;;;;;;5034792;28;20194;-83
2022/10/28 02:46:29;;;;;;;8.80;4.90;;;;;;;;;;5036035;28;20236;-83
2022/10/28 02:48:59;;;;;;;9.10;5.00;;;;;;;;;;5051125;28;20227;-83
2022/10/28 02:51:34;;;;;;;7.83;4.70;;;;;;;;;;5048574;28;20190;-82
2022/10/28 02:54:06;;;;;;;10.13;4.97;;;;;;;;;;5032213;28;20258;-82
2022/10/28 02:56:35;;;;;;;10.30;4.40;;;;;;;;;;5055632;28;20297;-83
2022/10/28 02:59:01;;;;;;;8.77;4.87;;;;;;;;;;5061161;28;20174;-83
2022/10/28 03:01:27;;;;;;;9.47;4.80;;;;;;;;;;5047554;28;20189;-83
2022/10/28 03:03:54;;;;;;;10.53;4.60;;;;;;;;;;5048057;28;20166;-82
2022/10/28 03:06:20;;;;;;;8.03;4.20;;;;;;;;;;5046277;28;20210;-83
2022/10/28 03:08:46;;;;;;;10.33;4.60;;;;;;;;;;5048020;28;20208;-84
2022/10/28 03:11:12;;;;;;;9.70;4.40;;;;;;;;;;5051417;28;20257;-83
2022/10/28 03:13:38;;;;;;;8.03;4.73;;;;;;;;;;5051588;28;20178;-83
2022/10/28 03:16:04;;;;;;;9.87;4.53;;;;;;;;;;5045672;28;20269;-82
2022/10/28 03:18:30;;;;;;;9.20;3.87;;;;;;;;;;5016271;28;20210;-81
2022/10/28 03:20:56;;;;;;;7.90;4.07;;;;;;;;;;5050562;28;20193;-83
2022/10/28 03:23:22;;;;;;;7.97;3.97;;;;;;;;;;5051935;28;20169;-83
2022/10/28 03:25:49;;;;;;;9.20;4.40;;;;;;;;;;5011060;28;20266;-83
2022/10/28 03:28:15;;;;;;;6.30;3.67;;;;;;;;;;5052413;28;20200;-83
2022/10/28 03:30:41;;;;;;;7.77;4.07;;;;;;;;;;5048331;28;20189;-83
2022/10/28 03:33:07;;;;;;;10.10;3.80;;;;;;;;;;5048697;28;20225;-83
2022/10/28 03:35:33;;;;;;;6.67;3.77;;;;;;;;;;5042003;28;20191;-83
2022/10/28 03:38:00;;;;;;;10.57;3.83;;;;;;;;;;5048440;28;20202;-83
2022/10/28 03:40:26;;;;;;;7.00;3.33;;;;;;;;;;5053523;28;20801;-82
2022/10/28 03:42:52;;;;;;;7.97;3.83;;;;;;;;;;5035923;28;20909;-80
2022/10/28 03:45:18;;;;;;;7.33;3.47;;;;;;;;;;5051129;28;20277;-82
2022/10/28 03:47:44;;;;;;;8.23;3.83;;;;;;;;;;5033906;28;20653;-83
2022/10/28 03:50:16;;;;;;;8.37;3.90;;;;;;;;;;5032027;28;20603;-83
2022/10/28 03:52:43;;;;;;;7.20;3.13;;;;;;;;;;5046811;28;20189;-82
2022/10/28 03:55:09;;;;;;;8.70;3.20;;;;;;;;;;5048715;28;20211;-80
2022/10/28 03:57:35;;;;;;;7.03;3.30;;;;;;;;;;5034379;28;20233;-82
2022/10/28 04:00:02;;;;;;;9.93;3.93;;;;;;;;;;5014360;28;20208;-82
2022/10/28 04:02:37;;;;;;;8.73;3.63;;;;;;;;;;5050726;28;20256;-82
2022/10/28 04:05:04;;;;;;;8.97;4.20;;;;;;;;;;5052538;28;20217;-82
2022/10/28 04:07:30;;;;;;;9.00;3.97;;;;;;;;;;5035266;28;20209;-81
2022/10/28 04:09:56;;;;;;;7.10;3.73;;;;;;;;;;5052258;28;20181;-81
2022/10/28 04:12:22;;;;;;;9.77;4.17;;;;;;;;;;5042843;28;20611;-82
2022/10/28 04:14:48;;;;;;;10.57;4.60;;;;;;;;;;5046813;28;20286;-83
2022/10/28 04:17:14;;;;;;;10.20;4.70;;;;;;;;;;5047300;28;20305;-81
2022/10/28 04:19:41;;;;;;;10.03;4.03;;;;;;;;;;5050614;28;20204;-83
2022/10/28 04:22:08;;;;;;;7.43;4.50;;;;;;;;;;5016106;28;20190;-83
2022/10/28 04:24:34;;;;;;;9.27;4.37;;;;;;;;;;5018273;28;20205;-82
2022/10/28 04:27:01;;;;;;;7.97;4.23;;;;;;;;;;5051087;28;20189;-82
2022/10/28 04:29:27;;;;;;;10.17;4.30;;;;;;;;;;5047019;28;20182;-83
2022/10/28 04:31:53;;;;;;;8.77;4.37;;;;;;;;;;5027048;28;20722;-83
2022/10/28 04:34:19;;;;;;;8.67;4.43;;;;;;;;;;5047904;28;20186;-82
2022/10/28 04:36:45;;;;;;;6.80;4.50;;;;;;;;;;5041039;28;20312;-81
2022/10/28 04:39:11;;;;;;;8.33;4.17;;;;;;;;;;5049883;28;20255;-82
2022/10/28 04:41:38;;;;;;;8.47;4.70;;;;;;;;;;5049898;28;20532;-82
2022/10/28 04:44:04;;;;;;;8.77;4.37;;;;;;;;;;5047950;28;20186;-81
2022/10/28 04:46:30;;;;;;;10.73;5.13;;;;;;;;;;5039168;28;20197;-80
2022/10/28 04:48:56;;;;;;;11.52;4.95;;;;;;;;;;5046677;28;20439;-80
2022/10/28 04:51:22;;;;;;;9.97;4.97;;;;;;;;;;5043005;28;20178;-80
2022/10/28 04:53:48;;;;;;;8.67;5.03;;;;;;;;;;5051524;28;20189;-81
2022/10/28 04:56:14;;;;;;;8.90;4.83;;;;;;;;;;5049352;28;20712;-81
2022/10/28 04:58:41;;;;;;;9.63;4.83;;;;;;;;;;5047942;28;20231;-81
2022/10/28 05:01:07;;;;;;;9.63;4.90;;;;;;;;;;5045950;28;20189;-81
2022/10/28 05:03:34;;;;;;;9.77;4.93;;;;;;;;;;5032953;28;20274;-80
2022/10/28 05:06:00;;;;;;;9.60;4.37;;;;;;;;;;5045353;28;20263;-81
2022/10/28 05:08:26;;;;;;;13.07;5.27;;;;;;;;;;5045315;28;20539;-78
2022/10/28 05:10:52;;;;;;;14.10;5.40;;;;;;;;;;5051995;28;20193;-80
2022/10/28 05:13:19;;;;;;;9.07;5.50;;;;;;;;;;5050909;28;20423;-81
2022/10/28 05:15:47;;;;;;;9.83;5.43;;;;;;;;;;5049760;28;20201;-81
2022/10/28 05:18:13;;;;;;;9.23;5.70;;;;;;;;;;5047460;28;20950;-80
2022/10/28 05:20:39;;;;;;;10.67;6.30;;;;;;;;;;5038864;28;20193;-82
2022/10/28 05:23:06;;;;;;;12.03;6.10;;;;;;;;;;5024311;28;20188;-77
2022/10/28 05:25:32;;;;;;;9.40;5.90;;;;;;;;;;5048718;28;20202;-78
2022/10/28 05:27:59;;;;;;;9.03;6.37;;;;;;;;;;5040605;28;20194;-77
2022/10/28 05:30:25;;;;;;;7.83;5.77;;;;;;;;;;5047549;28;20194;-77
2022/10/28 05:32:51;;;;;;;10.30;5.30;;;;;;;;;;5038185;28;20197;-77
2022/10/28 05:35:17;;;;;;;10.73;5.30;;;;;;;;;;5037105;28;20286;-77
2022/10/28 05:37:43;;;;;;;10.60;5.97;;;;;;;;;;5032701;28;20612;-77
2022/10/28 05:40:10;;;;;;;9.60;5.47;;;;;;;;;;5041031;28;20185;-76
2022/10/28 05:42:40;;;;;;;10.20;5.90;;;;;;;;;;5045989;28;20210;-78
2022/10/28 05:45:07;;;;;;;8.20;5.47;;;;;;;;;;5044761;28;20197;-75
2022/10/28 05:47:33;;;;;;;10.70;5.70;;;;;;;;;;5043692;28;20188;-77
2022/10/28 05:49:59;;;;;;;9.13;5.17;;;;;;;;;;5044378;28;20292;-77
2022/10/28 05:52:25;;;;;;;10.47;5.57;;;;;;;;;;5036770;28;20169;-72
2022/10/28 05:54:51;;;;;;;10.38;6.15;;;;;;;;;;5040383;28;20518;-79
2022/10/28 05:57:17;;;;;;;10.57;5.87;;;;;;;;;;5047302;28;20210;-78
2022/10/28 05:59:43;;;;;;;12.07;5.80;;;;;;;;;;5042574;28;20695;-78
2022/10/28 06:02:13;;;;;;;8.83;5.10;;;;;;;;;;5046258;28;20209;-77
2022/10/28 06:04:40;;;;;;;10.00;5.63;;;;;;;;;;5037578;28;20196;-78
2022/10/28 06:07:07;;;;;;;14.97;6.07;;;;;;;;;;5044008;28;20703;-78
2022/10/28 06:09:33;;;;;;;7.17;5.50;;;;;;;;;;5042668;28;20186;-78
2022/10/28 06:11:59;;;;;;;9.30;5.50;;;;;;;;;;5032689;28;20389;-78
2022/10/28 06:14:25;;;;;;;10.00;5.40;;;;;;;;;;5025447;28;20643;-78
2022/10/28 06:16:51;;;;;;;8.63;5.23;;;;;;;;;;5033776;28;20213;-77
2022/10/28 06:19:18;;;;;;;10.83;5.87;;;;;;;;;;5041303;28;20308;-77
2022/10/28 06:21:44;;;;;;;15.10;5.70;;;;;;;;;;5048548;28;20188;-77
2022/10/28 06:24:10;;;;;;;13.10;5.90;;;;;;;;;;5047799;28;20188;-77
2022/10/28 06:26:36;;;;;;;10.20;5.77;;;;;;;;;;5047377;28;20231;-78
2022/10/28 06:29:02;;;;;;;8.47;4.97;;;;;;;;;;5037190;28;20235;-77
2022/10/28 06:31:29;;;;;;;11.53;5.33;;;;;;;;;;5027528;28;20313;-77
2022/10/28 06:33:56;;;;;;;11.47;5.93;;;;;;;;;;5037042;28;20900;-78
2022/10/28 06:36:22;;;;;;;12.83;5.83;;;;;;;;;;5041457;28;20241;-78
2022/10/28 06:38:48;;;;;;;12.00;5.87;;;;;;;;;;5044980;28;20205;-77
2022/10/28 06:41:15;;;;;;;12.60;5.97;;;;;;;;;;5036829;28;20615;-76
2022/10/28 06:43:41;;;;;;;15.37;6.50;;;;;;;;;;5038510;28;20169;-77
2022/10/28 06:46:07;;;;;;;13.70;6.60;;;;;;;;;;5045734;28;20210;-77
2022/10/28 06:48:33;;;;;;;11.00;6.23;;;;;;;;;;5047110;28;20186;-78
2022/10/28 06:51:00;;;;;;;10.23;6.03;;;;;;;;;;5030367;28;20178;-78
2022/10/28 06:53:26;;;;;;;7.43;5.57;;;;;;;;;;5044975;28;20178;-78
2022/10/28 06:55:56;;;;;;;8.60;5.77;;;;;;;;;;5033413;28;20375;-77
2022/10/28 06:58:22;;;;;;;8.40;6.00;;;;;;;;;;5044239;28;20201;-77
2022/10/28 07:00:49;;;;;;;10.30;5.40;;;;;;;;;;5038646;28;20679;-78
2022/10/28 07:03:15;;;;;;;11.30;6.80;;;;;;;;;;5032119;28;20176;-78
2022/10/28 07:05:41;;;;;;;12.27;6.20;;;;;;;;;;5047494;28;20202;-77
2022/10/28 07:08:08;;;;;;;10.43;6.37;;;;;;;;;;5048091;28;20216;-77
2022/10/28 07:10:34;;;;;;;11.83;5.93;;;;;;;;;;5045760;28;20280;-77
2022/10/28 07:13:00;;;;;;;12.30;6.27;;;;;;;;;;5033362;28;20179;-77
2022/10/28 07:15:26;;;;;;;10.90;5.97;;;;;;;;;;5039236;28;20278;-77
2022/10/28 07:17:53;;;;;;;10.40;5.90;;;;;;;;;;5046687;28;20205;-78
2022/10/28 07:20:19;;;;;;;10.53;6.00;;;;;;;;;;5046072;28;20680;-78
2022/10/28 07:22:46;;;;;;;9.67;6.07;;;;;;;;;;5039463;28;20174;-78
2022/10/28 07:25:12;;;;;;;12.43;6.10;;;;;;;;;;5037620;28;20217;-78
2022/10/28 07:27:38;;;;;;;12.90;5.53;;;;;;;;;;5041308;28;20192;-76
2022/10/28 07:30:04;;;;;;;8.47;5.83;;;;;;;;;;5038865;28;20186;-77
2022/10/28 07:32:31;;;;;;;9.90;6.80;;;;;;;;;;5047444;28;20212;-78
2022/10/28 07:34:58;;;;;;;12.73;6.50;;;;;;;;;;5039179;28;20606;-78
2022/10/28 07:37:24;;;;;;;13.70;7.97;;;;;;;;;;5024878;28;20264;-78
2022/10/28 07:39:50;;;;;;;11.50;7.07;;;;;;;;;;5042412;28;20187;-78
2022/10/28 07:42:16;;;;;;;10.83;6.33;;;;;;;;;;5039249;28;20171;-77
2022/10/28 07:44:42;;;;;;;10.07;5.50;;;;;;;;;;5050257;28;20497;-78
2022/10/28 07:47:08;;;;;;;10.30;5.83;;;;;;;;;;5049831;28;20185;-77
2022/10/28 07:49:34;;;;;;;9.47;5.63;;;;;;;;;;5060881;28;20197;-77
2022/10/28 07:52:01;;;;;;;9.20;6.03;;;;;;;;;;5053878;28;20650;-78
2022/10/28 07:54:27;;;;;;;12.60;6.97;;;;;;;;;;5034186;28;20576;-78
2022/10/28 07:56:53;;;;;;;12.30;6.83;;;;;;;;;;5035734;28;20204;-78
2022/10/28 07:59:20;;;;;;;11.83;6.43;;;;;;;;;;5027320;28;20175;-78
2022/10/28 08:01:46;;;;;;;12.03;6.53;;;;;;;;;;5041178;28;20193;-78
2022/10/28 08:04:12;;;;;;;11.53;7.03;;;;;;;;;;5050049;28;20182;-78
2022/10/28 08:06:38;;;;;;;13.13;7.50;;;;;;;;;;5046088;28;20705;-78
2022/10/28 08:09:04;;;;;;;12.13;6.40;;;;;;;;;;5048419;28;20185;-78
2022/10/28 08:11:30;;;;;;;12.13;6.43;;;;;;;;;;5029279;28;20189;-78
2022/10/28 08:13:57;;;;;;;11.13;7.60;;;;;;;;;;5044067;28;20239;-78
2022/10/28 08:16:23;;;;;;;12.13;7.17;;;;;;;;;;5040785;28;20711;-78
2022/10/28 08:18:51;;;;;;;14.63;7.23;;;;;;;;;;5046768;28;20201;-78
2022/10/28 08:21:18;;;;;;;12.53;7.47;;;;;;;;;;5047116;28;20169;-78
2022/10/28 08:23:47;;;;;;;11.20;7.03;;;;;;;;;;5042723;28;20167;-78
2022/10/28 08:26:16;;;;;;;11.90;6.87;;;;;;;;;;5060143;28;20498;-78
2022/10/28 08:28:43;;;;;;;8.53;6.17;;;;;;;;;;5046449;28;20546;-78
2022/10/28 08:31:11;;;;;;;11.50;6.07;;;;;;;;;;5047655;28;20184;-78
2022/10/28 08:33:38;;;;;;;8.67;5.47;;;;;;;;;;5030431;28;20268;-78
2022/10/28 08:36:05;;;;;;;10.57;5.97;;;;;;;;;;5046344;28;20847;-78
2022/10/28 08:38:31;;;;;;;12.17;6.17;;;;;;;;;;5031913;28;20214;-78
2022/10/28 08:41:04;;;;;;;13.13;7.20;;;;;;;;;;5034407;28;20646;-78
2022/10/28 08:43:39;;;;;;;13.93;6.20;;;;;;;;;;5045876;28;20658;-78
2022/10/28 08:46:17;;;;;;;12.30;5.67;;;;;;;;;;5042857;28;20240;-78
2022/10/28 08:48:43;;;;;;;12.50;5.60;;;;;;;;;;5037416;28;20330;-78
2022/10/28 08:51:15;;;;;;;8.27;4.93;;;;;;;;;;5032726;28;20186;-77
2022/10/28 08:53:48;;;;;;;12.53;5.87;;;;;;;;;;5044268;28;20260;-78
2022/10/28 08:56:32;;;;;;;11.23;5.00;;;;;;;;;;5039527;28;20205;-78
2022/10/28 08:59:00;;;;;;;11.63;5.03;;;;;;;;;;5030781;28;20241;-78
2022/10/28 09:01:33;;;;;;;16.47;4.93;;;;;;;;;;5035984;28;20178;-78
2022/10/28 09:04:02;;;;;;;10.13;4.70;;;;;;;;;;5041910;28;20361;-78
2022/10/28 09:06:30;;;;;;;7.00;5.17;;;;;;;;;;5051092;28;20335;-78
2022/10/28 09:08:57;;;;;;;9.30;5.10;;;;;;;;;;5043145;28;20614;-78
2022/10/28 09:11:24;;;;;;;10.70;4.50;;;;;;;;;;5048330;28;20209;-77
2022/10/28 09:14:08;;;;;;;9.87;4.30;;;;;;;;;;5048814;28;20771;-78
2022/10/28 09:16:48;;;;;;;10.33;4.30;;;;;;;;;;5038446;28;20298;-78
2022/10/28 09:19:23;;;;;;;12.77;4.20;;;;;;;;;;5032642;28;20220;-76
2022/10/28 09:21:59;;;;;;;7.87;3.80;;;;;;;;;;5044477;28;20189;-78
2022/10/28 09:24:45;;;;;;;8.03;3.60;;;;;;;;;;5045705;28;20170;-78
2022/10/28 09:27:19;;;;;;;10.00;4.13;;;;;;;;;;5050637;28;20261;-78
2022/10/28 09:29:53;;;;;;;7.77;4.27;;;;;;;;;;5051159;28;20166;-78
2022/10/28 09:32:23;;;;;;;11.90;5.20;;;;;;;;;;5049374;28;20713;-77
2022/10/28 09:34:59;;;;;;;11.87;5.10;;;;;;;;;;5044509;28;20225;-78
2022/10/28 09:37:28;;;;;;;9.13;4.23;;;;;;;;;;5043947;28;20232;-78
2022/10/28 09:39:55;;;;;;;9.37;4.20;;;;;;;;;;5043175;28;20221;-75
2022/10/28 09:42:25;;;;;;;11.00;4.80;;;;;;;;;;5046472;28;20526;-78
2022/10/28 09:44:54;;;;;;;13.47;5.10;;;;;;;;;;5042349;28;20217;-76
2022/10/28 09:47:23;;;;;;;9.47;5.23;;;;;;;;;;5048056;28;20185;-78
2022/10/28 09:49:50;;;;;;;12.10;4.97;;;;;;;;;;5044781;28;20518;-77
2022/10/28 09:52:23;;;;;;;11.27;4.87;;;;;;;;;;5048195;28;20196;-78
2022/10/28 09:54:51;;;;;;;12.37;4.97;;;;;;;;;;5046604;28;20633;-78
2022/10/28 09:57:17;;;;;;;12.93;5.23;;;;;;;;;;5033782;28;20218;-78
2022/10/28 09:59:43;;;;;;;12.83;5.07;;;;;;;;;;5041863;28;20658;-75
2022/10/28 10:02:29;;;;;;;9.77;4.43;;;;;;;;;;5044326;28;20197;-76
2022/10/28 10:04:56;;;;;;;10.00;4.40;;;;;;;;;;5040059;28;20292;-76
2022/10/28 10:07:34;;;;;;;11.20;3.73;;;;;;;;;;5031060;28;20221;-79
2022/10/28 10:10:02;;;;;;;9.77;4.47;;;;;;;;;;5040150;28;20186;-77
2022/10/28 10:12:31;;;;;;;8.17;3.77;;;;;;;;;;5045379;28;20193;-74
2022/10/28 10:14:58;;;;;;;9.67;3.73;;;;;;;;;;5042373;28;20276;-79
2022/10/28 10:17:29;;;;;;;7.23;3.70;;;;;;;;;;5044977;28;20208;-78
2022/10/28 10:20:04;;;;;;;9.70;3.80;;;;;;;;;;5046985;28;20859;-77
2022/10/28 10:22:37;;;;;;;10.27;4.57;;;;;;;;;;5047381;28;20185;-80
2022/10/28 10:25:24;;;;;;;12.70;4.00;;;;;;;;;;5028322;28;20258;-78
2022/10/28 10:28:14;;;;;;;12.30;4.30;;;;;;;;;;5040137;28;20197;-75
2022/10/28 10:30:49;;;;;;;6.87;3.87;;;;;;;;;;5038741;28;20205;-77
2022/10/28 10:33:24;;;;;;;10.00;4.43;;;;;;;;;;5044794;28;20281;-77
2022/10/28 10:35:56;;;;;;;9.23;4.20;;;;;;;;;;5038349;28;20217;-76
2022/10/28 10:38:22;;;;;;;9.50;4.07;;;;;;;;;;5036817;28;20754;-77
2022/10/28 10:40:49;;;;;;;8.30;4.00;;;;;;;;;;5038993;28;20524;-74
2022/10/28 10:43:23;;;;;;;7.30;3.60;;;;;;;;;;5041940;28;20182;-76
2022/10/28 10:45:51;;;;;;;10.37;3.90;;;;;;;;;;5039091;28;20285;-77
2022/10/28 10:48:17;;;;;;;8.83;3.73;;;;;;;;;;5042736;28;20187;-77
2022/10/28 10:50:48;;;;;;;8.57;3.77;;;;;;;;;;5047110;28;20186;-75
2022/10/28 10:53:23;;;;;;;10.83;3.40;;;;;;;;;;5033970;28;20185;-75
2022/10/28 10:55:51;;;;;;;8.67;3.10;;;;;;;;;;5040170;28;20205;-74
2022/10/28 10:58:19;;;;;;;5.93;2.60;;;;;;;;;;5042773;28;20613;-74
2022/10/28 11:00:47;;;;;;;10.93;3.40;;;;;;;;;;5037578;28;20185;-73
2022/10/28 11:03:37;;;;;;;7.67;3.03;;;;;;;;;;5037412;28;20198;-74
2022/10/28 11:06:04;;;;;;;8.03;2.90;;;;;;;;;;5041151;28;20206;-72
2022/10/28 11:08:33;;;;;;;6.23;2.90;;;;;;;;;;5039829;28;21618;-74
2022/10/28 11:11:05;;;;;;;11.87;3.40;;;;;;;;;;5031924;28;20265;-74
2022/10/28 11:13:32;;;;;;;5.80;2.83;;;;;;;;;;5030370;28;20556;-74
2022/10/28 11:16:03;;;;;;;7.57;2.70;;;;;;;;;;5038108;28;20297;-74
2022/10/28 11:18:38;;;;;;;10.43;3.37;;;;;;;;;;5039354;28;20769;-74
2022/10/28 11:21:19;;;;;;;13.03;3.10;;;;;;;;;;5045534;28;20554;-73
2022/10/28 11:23:57;;;;;;;11.13;3.03;;;;;;;;;;5034998;28;20354;-74
2022/10/28 11:26:24;;;;;;;9.00;3.00;;;;;;;;;;5041473;28;20210;-73
2022/10/28 11:29:03;;;;;;;12.13;3.07;;;;;;;;;;5038479;28;20278;-74
2022/10/28 11:31:32;;;;;;;7.77;3.00;;;;;;;;;;5042624;28;20186;-73
2022/10/28 11:34:20;;;;;;;8.23;3.10;;;;;;;;;;5043408;28;20193;-74
2022/10/28 11:36:49;;;;;;;6.53;2.73;;;;;;;;;;5044353;28;20188;-73
2022/10/28 11:39:19;;;;;;;7.37;3.00;;;;;;;;;;5039755;28;20653;-74
2022/10/28 11:41:51;;;;;;;9.63;2.90;;;;;;;;;;5042721;28;20200;-74
2022/10/28 11:44:17;;;;;;;9.00;3.10;;;;;;;;;;5042704;28;20271;-73
2022/10/28 11:46:53;;;;;;;7.63;2.83;;;;;;;;;;5038331;28;20181;-74
2022/10/28 11:49:44;;;;;;;6.70;3.07;;;;;;;;;;5037652;28;20189;-72
2022/10/28 11:52:30;;;;;;;6.57;2.97;;;;;;;;;;5042703;28;20327;-74
2022/10/28 11:55:29;;;;;;;8.10;2.90;;;;;;;;;;5011123;28;20300;-73
2022/10/28 11:58:00;;;;;;;8.53;3.10;;;;;;;;;;4987039;28;20228;-73
2022/10/28 12:00:27;;;;;;;6.80;2.83;;;;;;;;;;5042626;28;20323;-74
2022/10/28 12:03:12;;;;;;;6.33;3.20;;;;;;;;;;5044778;28;20280;-74
2022/10/28 12:05:38;;;;;;;11.37;3.10;;;;;;;;;;5034018;28;20205;-74
2022/10/28 12:08:23;;;;;;;10.67;3.33;;;;;;;;;;5043840;28;20563;-74
2022/10/28 12:10:53;;;;;;;6.27;3.07;;;;;;;;;;5039688;28;20551;-73
2022/10/28 12:13:19;;;;;;;8.13;3.20;;;;;;;;;;5043136;28;20192;-74
2022/10/28 12:16:04;;;;;;;11.80;3.10;;;;;;;;;;5044238;28;20585;-74
2022/10/28 12:18:53;;;;;;;8.60;3.30;;;;;;;;;;5045970;28;20220;-74
2022/10/28 12:21:34;;;;;;;11.30;3.53;;;;;;;;;;5041447;28;20189;-74
2022/10/28 12:24:00;;;;;;;8.27;3.10;;;;;;;;;;5044894;28;20629;-74
2022/10/28 12:26:33;;;;;;;7.63;3.23;;;;;;;;;;5047869;28;20194;-74
2022/10/28 12:29:01;;;;;;;8.10;3.07;;;;;;;;;;5047573;28;20613;-74
2022/10/28 12:31:29;;;;;;;11.80;2.93;;;;;;;;;;5042700;28;20185;-75
2022/10/28 12:33:57;;;;;;;10.13;3.17;;;;;;;;;;5046339;28;20208;-74
2022/10/28 12:36:23;;;;;;;11.67;3.33;;;;;;;;;;5048498;28;20259;-74
2022/10/28 12:39:00;;;;;;;6.73;3.13;;;;;;;;;;5044957;28;20235;-74
2022/10/28 12:41:27;;;;;;;13.33;2.87;;;;;;;;;;5045044;28;20335;-74
2022/10/28 12:43:56;;;;;;;11.77;3.40;;;;;;;;;;5049106;28;20182;-72
2022/10/28 12:46:30;;;;;;;9.37;3.07;;;;;;;;;;5047831;28;20204;-74
2022/10/28 12:49:01;;;;;;;9.23;3.20;;;;;;;;;;5037338;28;20256;-72
2022/10/28 12:51:29;;;;;;;8.60;3.00;;;;;;;;;;5045349;28;20186;-71
2022/10/28 12:54:02;;;;;;;8.83;3.13;;;;;;;;;;5042471;28;21333;-70
2022/10/28 12:56:39;;;;;;;8.80;3.23;;;;;;;;;;5037532;28;20205;-73
2022/10/28 12:59:05;;;;;;;7.63;2.80;;;;;;;;;;5042442;28;20224;-71
2022/10/28 13:01:32;;;;;;;10.43;2.77;;;;;;;;;;5042077;28;20197;-73
2022/10/28 13:03:59;;;;;;;8.40;2.90;;;;;;;;;;5048992;28;20193;-72
2022/10/28 13:06:28;;;;;;;11.63;2.90;;;;;;;;;;5043972;28;20245;-72
2022/10/28 13:09:09;;;;;;;6.97;3.10;;;;;;;;;;5044432;28;20213;-72
2022/10/28 13:11:41;;;;;;;9.93;2.97;;;;;;;;;;5039390;28;20208;-72
2022/10/28 13:14:16;;;;;;;6.33;2.97;;;;;;;;;;5043725;28;20277;-72
2022/10/28 13:16:52;;;;;;;8.67;2.90;;;;;;;;;;5042675;28;20182;-73
2022/10/28 13:19:37;;;;;;;5.43;2.70;;;;;;;;;;5038852;28;20748;-72
2022/10/28 13:22:13;;;;;;;8.27;3.10;;;;;;;;;;5040291;28;20178;-71
2022/10/28 13:24:39;;;;;;;10.00;2.93;;;;;;;;;;5044044;28;20201;-73
2022/10/28 13:27:09;;;;;;;9.33;3.33;;;;;;;;;;5047704;28;20660;-73
2022/10/28 13:29:37;;;;;;;7.10;3.07;;;;;;;;;;5045638;28;20184;-72
2022/10/28 13:32:03;;;;;;;11.67;3.00;;;;;;;;;;5039208;28;20205;-73
2022/10/28 13:34:31;;;;;;;7.47;3.00;;;;;;;;;;5042337;28;20179;-72
2022/10/28 13:36:59;;;;;;;5.93;2.70;;;;;;;;;;5048637;28;20174;-76
2022/10/28 13:39:28;;;;;;;7.63;2.97;;;;;;;;;;5042208;28;20576;-74
2022/10/28 13:42:13;;;;;;;9.80;3.10;;;;;;;;;;5046193;28;20560;-75
2022/10/28 13:44:50;;;;;;;9.57;3.17;;;;;;;;;;5041363;28;20210;-75
2022/10/28 13:47:16;;;;;;;8.30;2.60;;;;;;;;;;5041230;28;20189;-75
2022/10/28 13:50:01;;;;;;;9.67;3.67;;;;;;;;;;5043236;28;20251;-75
2022/10/28 13:52:27;;;;;;;10.17;2.90;;;;;;;;;;5047133;28;20205;-72
2022/10/28 13:54:57;;;;;;;6.50;3.00;;;;;;;;;;5047211;28;20248;-70
2022/10/28 13:57:23;;;;;;;11.30;3.37;;;;;;;;;;5041824;28;20274;-72
2022/10/28 13:59:59;;;;;;;9.90;3.50;;;;;;;;;;5044938;28;20202;-71
2022/10/28 14:02:36;;;;;;;7.83;3.13;;;;;;;;;;5046473;28;20716;-72
2022/10/28 14:05:07;;;;;;;8.10;3.30;;;;;;;;;;5042871;28;20264;-72
2022/10/28 14:07:34;;;;;;;7.97;3.60;;;;;;;;;;5035400;28;20199;-72
2022/10/28 14:10:18;;;;;;;11.53;3.27;;;;;;;;;;5045867;28;20212;-72
2022/10/28 14:12:46;;;;;;;10.07;3.10;;;;;;;;;;5040183;28;20199;-71
2022/10/28 14:15:16;;;;;;;7.87;2.97;;;;;;;;;;5045838;28;20215;-72
2022/10/28 14:18:00;;;;;;;7.67;3.00;;;;;;;;;;5036944;28;20206;-72
2022/10/28 14:20:31;;;;;;;9.07;3.20;;;;;;;;;;5050702;28;20196;-71
2022/10/28 14:22:57;;;;;;;8.23;3.17;;;;;;;;;;5044138;28;20185;-73
2022/10/28 14:25:45;;;;;;;6.83;3.13;;;;;;;;;;5045474;28;20609;-74
2022/10/28 14:28:26;;;;;;;8.57;3.00;;;;;;;;;;5036244;28;20181;-73
2022/10/28 14:31:10;;;;;;;8.27;2.80;;;;;;;;;;5036537;28;20200;-71
2022/10/28 14:33:42;;;;;;;9.03;2.83;;;;;;;;;;5040407;28;20247;-72
2022/10/28 14:36:18;;;;;;;14.77;3.17;;;;;;;;;;5033679;28;20214;-73
2022/10/28 14:39:06;;;;;;;9.80;2.90;;;;;;;;;;5038460;28;20340;-73
2022/10/28 14:41:32;;;;;;;7.80;2.97;;;;;;;;;;5037847;28;20219;-73
2022/10/28 14:44:04;;;;;;;11.27;3.63;;;;;;;;;;5040680;28;20622;-74
2022/10/28 14:46:51;;;;;;;8.33;3.20;;;;;;;;;;5055201;28;20206;-73
2022/10/28 14:49:24;;;;;;;7.40;3.03;;;;;;;;;;5045251;28;20597;-73
2022/10/28 14:51:51;;;;;;;8.07;3.40;;;;;;;;;;5043810;28;20201;-73